Wednesday, April 23, 2014
21:42 UTC
  |  Log In   |  Register Free
Airport Search:

Pedro Bay Airport
(4K0)

Pedro Bay Airport Diagram
No Airport Diagram Available

FAA data valid effective April 3, 2014 until May 29, 2014 (unless otherwise noted).

 
 
 
 
 
 
 
 
 
 
 
 
 
 

Current Aviation Weather for Pedro Bay Airport (4K0)

The most recent METAR observation for PAIL was updated at: 2053 UTC
METAR Summary (Translated METAR)
PAIL
232053Z 11007KT 080V140 10SM FEW070 FEW160 08/M01 A2970 RMK AO2 SLP060 T00781006 58001
PAIG
(39.7 nm SW from PAIL)
232056Z AUTO 06011KT 10SM CLR 03/00 A2965 RMK AO2 TSNO 58007 T00330000 SLP043 $
TAF Summary (Translated TAF)
PAIL
231740Z 2318/2418 07005KT P6SM FEW050 FM232200 13009KT P6SM SKC FM240800 05005KT P6SM SCT150
  Airport Weather Conditions for 4K0

Current weather conditions are
not available for 4K0


The nearest NOAA weather station
is at ILI, (23.7 nm SW from 4K0)
  
 Current Weather at ILI
46° F
A Few Clouds
East winds at 8.1 mph
ILI NOAA Radar

Pressure: 29.70 in
Humidity: 56%
Wind: East at 8.1 MPH (7 KT)
Dew Point: 30.9°F
Visibility: 10.00 mi


Airport Weather Forecast for 4K0

Translated METAR and TAF for PAIL
Translated METAR for PAIL (2142 UTC 23 April 2014)
found at http://aviationweather.gov/adds/metars/
 
METAR text: PAIL 232053Z 11007KT 080V140 10SM FEW070 FEW160 08/M01 A2970 RMK AO2 SLP060 T00781006 58001
Conditions at: PAIL (ILIAMNA , AK, US) observed 2053 UTC 23 April 2014
Temperature: 7.8°C (46°F)
Dewpoint: -0.6°C (31°F) [RH = 55%]
Pressure (altimeter): 29.70 inches Hg (1005.8 mb)
[Sea-level pressure: 1006.0 mb]
Winds: from the ESE (110 degrees) at 8 MPH (7 knots; 3.6 m/s)
Visibility: 10 or more miles (16+ km)
Ceiling: at least 12,000 feet AGL
Clouds: few clouds at 7000 feet AGL
few clouds at 16000 feet AGL
Weather: no significant weather observed at this time
Translated TAF for PAIL
Forecast for: PAIL (ILIAMNA , AK, US)
TAF Text: PAIL 231740Z 2318/2418 07005KT P6SM FEW050
Forecast period: 1800 to 2200 UTC 23 April 2014
Forecast type: FROM: standard forecast or significant change
Winds: from the ENE (70 degrees) at 6 MPH (5 knots; 2.6 m/s)
Visibility: 6 or more miles (10+ km)
Clouds: few clouds at 5000 feet AGL
Weather: no significant weather forecast for this period
TAF Text: FM232200 13009KT P6SM SKC
Forecast period: 2200 UTC 23 April 2014 to 0800 UTC 24 April 2014
Forecast type: FROM: standard forecast or significant change
Winds: from the SE (130 degrees) at 10 MPH (9 knots; 4.7 m/s)
Visibility: 6 or more miles (10+ km)
Clouds: clear skies
Weather: no significant weather forecast for this period
TAF Text: FM240800 05005KT P6SM SCT150
Forecast period: 0800 to 1800 UTC 24 April 2014
Forecast type: FROM: standard forecast or significant change
Winds: from the NE (50 degrees) at 6 MPH (5 knots; 2.6 m/s)
Visibility: 6 or more miles (10+ km)
Clouds: scattered clouds at 15000 feet AGL
Weather: no significant weather forecast for this period

Find All Airport Services Find A Hotel Find A Rental Car Find A Golf Course Find A Restaurant $100 Hamburger



FBO's on the Field
FBO Company Facility Photos Services Transportation Aviation Fuel Prices: Prices include tax
Catering Weather Repair Courtesy Rental Type 100LL JetA JetA+ MOGAS 8087
 
Add another FBO Facility Photos Catering Weather Repair Courtesy Rental Type 100LL JetA JetA+ MOGAS 8087
Services Transportation Aviation Fuel Prices: Prices include tax
There are no FBO's currently reporting fuel at 4K0. List your FBO now


GlobalAir.com Airport Resource Center model-print
model-print
model-print
model-print